Gondan 465 — LEPD — position and weather

sailwx.info

Track history (hours):
 
Tides and Currents Weather Stations Pressure Air Temp Water Temp Dewpoint Dewpoint Depression Visibility Wind Speed Wind Dir Waves Ship Positions

Gondan 465

Last reported at 2017-Oct-18 15:00 UTC. Time now 2017-Oct-18 15:15 UTC.
Position N 70°38' E 023°39'.

Length 40 m.

Type: Towing. MMSI: 224885000.

Date/timePositionNaut miles runAvg speedWind from/ knotsBaromVisibWave heightAir tempDewpointWater temp
2017-Oct-18 15:00N 70°38' E 023°39'0 0.0
2017-Oct-18 14:00N 70°38' E 023°39'1 2.0
2017-Oct-18 13:30N 70°38' E 023°36'3 5.9
2017-Oct-18 13:00N 70°41' E 023°36'1 2.0
2017-Oct-18 12:30N 70°40' E 023°36'2 4.7
2017-Oct-18 12:00N 70°38' E 023°39'0 0.0
2017-Oct-18 11:30N 70°38' E 023°39'0 0.0
2017-Oct-18 11:00N 70°38' E 023°39'0 0.0
2017-Oct-18 10:30N 70°38' E 023°39'0 0.0
2017-Oct-18 10:00N 70°38' E 023°39'0 0.0
2017-Oct-18 09:30N 70°38' E 023°39'0 0.0
2017-Oct-18 09:00N 70°38' E 023°39'0 0.0
2017-Oct-18 08:30N 70°38' E 023°39'0 0.0
2017-Oct-18 08:00N 70°38' E 023°39'0 0.0
2017-Oct-18 07:30N 70°38' E 023°39'0 0.0
2017-Oct-18 07:00N 70°38' E 023°39'0 0.0
2017-Oct-18 06:30N 70°38' E 023°39'0 0.0
2017-Oct-18 06:00N 70°38' E 023°39'0 0.0
2017-Oct-18 05:30N 70°38' E 023°39'0 0.0
2017-Oct-18 05:00N 70°38' E 023°39'0 0.0
2017-Oct-18 04:30N 70°38' E 023°39'0 0.0
2017-Oct-18 04:00N 70°38' E 023°39'0 0.0
2017-Oct-18 03:30N 70°38' E 023°39'0 0.0
2017-Oct-18 03:00N 70°38' E 023°39'0 0.0
2017-Oct-18 02:30N 70°38' E 023°39'0 0.0
2017-Oct-18 02:00N 70°38' E 023°39'0 0.0
2017-Oct-18 01:30N 70°38' E 023°39'0 0.0
2017-Oct-18 01:00N 70°38' E 023°39'0 0.0
2017-Oct-18 00:30N 70°38' E 023°39'0 0.0
2017-Oct-18 00:00N 70°38' E 023°39'0 0.0
2017-Oct-17 23:30N 70°38' E 023°39'0 0.0
2017-Oct-17 23:00N 70°38' E 023°39'0 0.0
2017-Oct-17 22:30N 70°38' E 023°39'0 0.0
2017-Oct-17 22:00N 70°38' E 023°39'0 0.0
2017-Oct-17 21:30N 70°38' E 023°39'0 0.0
2017-Oct-17 21:00N 70°38' E 023°39'0 0.0
2017-Oct-17 20:30N 70°38' E 023°39'0 0.0
2017-Oct-17 20:00N 70°38' E 023°39'0 0.0
2017-Oct-17 19:30N 70°38' E 023°39'0 0.0
2017-Oct-17 19:00N 70°38' E 023°39'0 0.0
2017-Oct-17 18:30N 70°38' E 023°39'0 0.0
2017-Oct-17 18:00N 70°38' E 023°39'0 0.0
2017-Oct-17 17:30N 70°38' E 023°39'0 0.0
2017-Oct-17 17:00N 70°38' E 023°39'0 0.0
2017-Oct-17 16:30N 70°38' E 023°39'0 0.0
2017-Oct-17 16:00N 70°38' E 023°39'0 0.0
2017-Oct-17 15:29N 70°38' E 023°39'0 0.0
2017-Oct-17 14:59N 70°38' E 023°39'0 0.0
2017-Oct-17 14:30N 70°38' E 023°39'0 0.0
2017-Oct-17 14:00N 70°38' E 023°39'0 0.0
2017-Oct-17 13:30N 70°38' E 023°39'0 0.0
2017-Oct-17 13:00N 70°38' E 023°39'0 0.0
2017-Oct-17 12:30N 70°38' E 023°39'0 0.0
2017-Oct-17 12:00N 70°38' E 023°39'0 0.0
2017-Oct-17 11:30N 70°38' E 023°39'0 0.0
2017-Oct-17 11:00N 70°38' E 023°39'1 2.0
2017-Oct-17 10:30N 70°37' E 023°38'4 7.7
2017-Oct-17 10:00N 70°41' E 023°36'0 0.0
2017-Oct-17 09:30N 70°41' E 023°36'0 0.8
2017-Oct-17 09:00N 70°41' E 023°36'1 2.5
2017-Oct-17 08:30N 70°42' E 023°34'1 2.2
2017-Oct-17 08:00N 70°41' E 023°37'0 0.0
2017-Oct-17 07:30N 70°41' E 023°37'0 0.0
2017-Oct-17 07:00N 70°41' E 023°37'0 0.0
2017-Oct-17 06:30N 70°41' E 023°37'0 0.0
2017-Oct-17 06:00N 70°41' E 023°37'0 0.0
2017-Oct-17 05:30N 70°41' E 023°37'0 0.0
2017-Oct-17 05:00N 70°41' E 023°37'0 0.0
2017-Oct-17 04:30N 70°41' E 023°37'0 0.0
2017-Oct-17 04:00N 70°41' E 023°37'0 0.0
2017-Oct-17 03:30N 70°41' E 023°37'0 0.0
2017-Oct-17 03:00N 70°41' E 023°37'1 2.0
2017-Oct-17 02:30N 70°41' E 023°35'1 1.2
2017-Oct-17 02:00N 70°41' E 023°36'0 0.8
2017-Oct-17 01:30N 70°41' E 023°37'0 0.0
2017-Oct-17 01:00N 70°41' E 023°37'0 0.0
2017-Oct-17 00:30N 70°41' E 023°37'0 0.0
2017-Oct-17 00:00N 70°41' E 023°37'0 0.0
2017-Oct-16 23:30N 70°41' E 023°37'0 0.0
2017-Oct-16 23:00N 70°41' E 023°37'0 0.0
2017-Oct-16 22:30N 70°41' E 023°37'0 0.0
2017-Oct-16 22:00N 70°41' E 023°37'0 0.0
2017-Oct-16 21:30N 70°41' E 023°37'0 0.0
2017-Oct-16 21:00N 70°41' E 023°37'0 0.0
2017-Oct-16 20:30N 70°41' E 023°37'0 0.0
2017-Oct-16 20:00N 70°41' E 023°37'0 0.0
2017-Oct-16 19:30N 70°41' E 023°37'0 0.0
2017-Oct-16 19:00N 70°41' E 023°37'0 0.0
2017-Oct-16 18:30N 70°41' E 023°37'0 0.0
2017-Oct-16 18:00N 70°41' E 023°37'0 0.0
2017-Oct-16 17:30N 70°41' E 023°37'0 0.0
2017-Oct-16 17:00N 70°41' E 023°37'0 0.0
2017-Oct-16 16:30N 70°41' E 023°37'0 0.0
2017-Oct-16 16:00N 70°41' E 023°37'0 0.0
2017-Oct-16 15:30N 70°41' E 023°37'0 0.0
2017-Oct-16 15:00N 70°41' E 023°37'0 0.0
2017-Oct-16 14:00N 70°41' E 023°37'0 0.0
2017-Oct-16 13:30N 70°41' E 023°37'0 0.0
2017-Oct-16 13:00N 70°41' E 023°37'0 0.0
2017-Oct-16 12:30N 70°41' E 023°37'0 0.0
2017-Oct-16 12:00N 70°41' E 023°37'0 0.0
2017-Oct-16 11:30N 70°41' E 023°37'0 0.0
2017-Oct-16 11:00N 70°41' E 023°37'0 0.0
2017-Oct-16 10:30N 70°41' E 023°37'0 0.0
2017-Oct-16 10:00N 70°41' E 023°37'0 0.0
2017-Oct-16 09:30N 70°41' E 023°37'0 0.0
2017-Oct-16 09:00N 70°41' E 023°37'0 0.9
2017-Oct-16 08:30N 70°41' E 023°36'0 0.3
2017-Oct-16 08:00N 70°41' E 023°36'1 1.8
2017-Oct-16 07:30N 70°41' E 023°34'3 5.9
2017-Oct-16 07:00N 70°39' E 023°36'1 2.6
2017-Oct-16 06:30N 70°38' E 023°39'0 0.0
2017-Oct-16 06:00N 70°38' E 023°39'0 0.0
2017-Oct-16 05:30N 70°38' E 023°39'0 0.0
2017-Oct-16 05:00N 70°38' E 023°39'0 0.0
2017-Oct-16 04:30N 70°38' E 023°39'0 0.0
2017-Oct-16 04:00N 70°38' E 023°39'3 5.5
2017-Oct-16 03:31N 70°40' E 023°35'1 1.8
2017-Oct-16 03:01N 70°41' E 023°36'1 2.5
2017-Oct-16 02:30N 70°40' E 023°36'2 4.1
2017-Oct-16 02:00N 70°38' E 023°39'0 0.0
2017-Oct-16 01:30N 70°38' E 023°39'0 0.0
2017-Oct-16 01:00N 70°38' E 023°39'0 0.0
2017-Oct-16 00:30N 70°38' E 023°39'0 0.0
2017-Oct-15 23:59N 70°38' E 023°39'0 0.0
2017-Oct-15 23:30N 70°38' E 023°39'0 0.0
2017-Oct-15 22:59N 70°38' E 023°39'0 0.0
2017-Oct-15 22:30N 70°38' E 023°39'0 0.0
2017-Oct-15 22:00N 70°38' E 023°39'0 0.0
2017-Oct-15 21:30N 70°38' E 023°39'0 0.0
2017-Oct-15 21:00N 70°38' E 023°39'0 0.0
2017-Oct-15 20:30N 70°38' E 023°39'0 0.0
2017-Oct-15 20:00N 70°38' E 023°39'0 0.0
2017-Oct-15 19:30N 70°38' E 023°39'0 0.0
2017-Oct-15 19:00N 70°38' E 023°39'0 0.0
2017-Oct-15 18:30N 70°38' E 023°39'0 0.0
2017-Oct-15 18:00N 70°38' E 023°39'0 0.0
2017-Oct-15 17:30N 70°38' E 023°39'0 0.0
2017-Oct-15 17:00N 70°38' E 023°39'0 0.0
2017-Oct-15 16:30N 70°38' E 023°39'0 0.0
2017-Oct-15 16:00N 70°38' E 023°39'0 0.0
2017-Oct-15 15:30N 70°38' E 023°39'0 0.0
2017-Oct-15 15:00N 70°38' E 023°39'0 0.0
2017-Oct-15 14:00N 70°38' E 023°39'0 0.0
2017-Oct-15 13:30N 70°38' E 023°39'0 0.0
2017-Oct-15 13:00N 70°38' E 023°39'0 0.0
2017-Oct-15 12:30N 70°38' E 023°39'0 0.0
2017-Oct-15 12:00N 70°38' E 023°39'0 0.0
2017-Oct-15 11:30N 70°38' E 023°39'0 0.0
2017-Oct-15 11:00N 70°38' E 023°39'0 0.0
2017-Oct-15 10:30N 70°38' E 023°39'0 0.0
2017-Oct-15 10:00N 70°38' E 023°39'0 0.0
2017-Oct-15 09:30N 70°38' E 023°39'0 0.0
2017-Oct-15 09:00N 70°38' E 023°39'0 0.0
2017-Oct-15 08:30N 70°38' E 023°39'0 0.0
2017-Oct-15 08:00N 70°38' E 023°39'0 0.0
2017-Oct-15 07:29N 70°38' E 023°39'0 0.0
2017-Oct-15 07:00N 70°38' E 023°39'0 0.0
2017-Oct-15 06:30N 70°38' E 023°39'0 0.0
2017-Oct-15 06:00N 70°38' E 023°39'0 0.0
2017-Oct-15 05:30N 70°38' E 023°39'0 0.0
2017-Oct-15 05:00N 70°38' E 023°39'0 0.0
2017-Oct-15 04:30N 70°38' E 023°39'0 0.0
2017-Oct-15 04:00N 70°38' E 023°39'0 0.0
2017-Oct-15 03:30N 70°38' E 023°39'0 0.0
2017-Oct-15 03:00N 70°38' E 023°39'0 0.0
2017-Oct-15 02:30N 70°38' E 023°39'0 0.0
2017-Oct-15 02:00N 70°38' E 023°39'0 0.0
2017-Oct-15 01:30N 70°38' E 023°39'0 0.0
2017-Oct-15 01:00N 70°38' E 023°39'0 0.0
2017-Oct-15 00:30N 70°38' E 023°39'0 0.0
2017-Oct-15 00:00N 70°38' E 023°39'0 0.0
2017-Oct-14 23:29N 70°38' E 023°39'0 0.0
2017-Oct-14 23:00N 70°38' E 023°39'0 0.0
2017-Oct-14 22:29N 70°38' E 023°39'0 0.0
2017-Oct-14 22:00N 70°38' E 023°39'0 0.0
2017-Oct-14 21:30N 70°38' E 023°39'0 0.0
2017-Oct-14 21:00N 70°38' E 023°39'0 0.0
2017-Oct-14 20:30N 70°38' E 023°39'0 0.0
2017-Oct-14 20:00N 70°38' E 023°39'0 0.0
2017-Oct-14 19:30N 70°38' E 023°39'0 0.0
2017-Oct-14 19:00N 70°38' E 023°39'0 0.0
2017-Oct-14 18:30N 70°38' E 023°39'0 0.0
2017-Oct-14 18:00N 70°38' E 023°39'0 0.0
2017-Oct-14 17:30N 70°38' E 023°39'0 0.0
2017-Oct-14 17:00N 70°38' E 023°39'0 0.0
2017-Oct-14 16:30N 70°38' E 023°39'0 0.0
2017-Oct-14 16:00N 70°38' E 023°39'0 0.0
2017-Oct-14 15:30N 70°38' E 023°39'0 0.0
2017-Oct-14 15:00N 70°38' E 023°39'0 0.0
2017-Oct-14 14:30N 70°38' E 023°39'0 0.0
2017-Oct-14 14:00N 70°38' E 023°39'0 0.0
2017-Oct-14 13:30N 70°38' E 023°39'0 0.0
2017-Oct-14 13:00N 70°38' E 023°39'0 0.0
2017-Oct-14 12:30N 70°38' E 023°39'0 0.0
2017-Oct-14 12:00N 70°38' E 023°39'0 0.0
2017-Oct-14 11:30N 70°38' E 023°39'0 0.0
2017-Oct-14 11:00N 70°38' E 023°39'0 0.0
2017-Oct-14 10:30N 70°38' E 023°39'0 0.0
2017-Oct-14 10:00N 70°38' E 023°39'0 0.0
2017-Oct-14 09:30N 70°38' E 023°39'0 0.0
2017-Oct-14 09:00N 70°38' E 023°39'0 0.0
2017-Oct-14 08:30N 70°38' E 023°39'0 0.0
2017-Oct-14 08:00N 70°38' E 023°39'0 0.0
2017-Oct-14 07:30N 70°38' E 023°39'0 0.0
2017-Oct-14 07:00N 70°38' E 023°39'0 0.0
2017-Oct-14 06:30N 70°38' E 023°39'0 0.0
2017-Oct-14 06:00N 70°38' E 023°39'0 0.0
2017-Oct-14 05:30N 70°38' E 023°39'0 0.0
2017-Oct-14 05:00N 70°38' E 023°39'0 0.0
2017-Oct-14 04:30N 70°38' E 023°39'0 0.0
2017-Oct-14 04:00N 70°38' E 023°39'0 0.0
2017-Oct-14 03:30N 70°38' E 023°39'0 0.0
2017-Oct-14 03:00N 70°38' E 023°39'0 0.0
2017-Oct-14 02:30N 70°38' E 023°39'0 0.0
2017-Oct-14 02:00N 70°38' E 023°39'0 0.0
2017-Oct-14 01:30N 70°38' E 023°39'0 0.0
2017-Oct-14 01:00N 70°38' E 023°39'0 0.0
2017-Oct-14 00:30N 70°38' E 023°39'0 0.0
2017-Oct-14 00:00N 70°38' E 023°39'0 0.7
2017-Oct-13 23:30N 70°38' E 023°39'3 6.9
2017-Oct-13 23:00N 70°41' E 023°36'0 0.1
2017-Oct-13 22:30N 70°41' E 023°36'0 0.2
2017-Oct-13 22:00N 70°41' E 023°36'1 1.8
2017-Oct-13 21:30N 70°41' E 023°34'3 5.7
2017-Oct-13 21:00N 70°41' E 023°25'3 5.1
2017-Oct-13 20:30N 70°39' E 023°31'3 5.8
2017-Oct-13 20:00N 70°38' E 023°39'0 0.0
2017-Oct-13 19:30N 70°38' E 023°39'0 0.0
2017-Oct-13 19:00N 70°38' E 023°39'2 4.1
2017-Oct-13 18:31N 70°40' E 023°36'1 2.7
2017-Oct-13 18:00N 70°41' E 023°36'0 0.8
2017-Oct-13 17:30N 70°41' E 023°37'0 0.0
2017-Oct-13 17:00N 70°41' E 023°37'0 0.0
2017-Oct-13 16:30N 70°41' E 023°37'0 0.0
2017-Oct-13 16:00N 70°41' E 023°37'0 0.0
2017-Oct-13 15:30N 70°41' E 023°37'0 0.0
2017-Oct-13 15:00N 70°41' E 023°37'0 0.0
2017-Oct-13 14:30N 70°41' E 023°37'0 0.0
2017-Oct-13 14:00N 70°41' E 023°37'0 0.0
2017-Oct-13 13:30N 70°41' E 023°37'0 0.0
2017-Oct-13 13:00N 70°41' E 023°37'0 0.0
2017-Oct-13 12:30N 70°41' E 023°37'0 0.0
2017-Oct-13 12:00N 70°41' E 023°37'0 0.0
2017-Oct-13 11:30N 70°41' E 023°37'0 0.0
2017-Oct-13 11:00N 70°41' E 023°37'0 0.0
2017-Oct-13 10:30N 70°41' E 023°37'0 0.0
2017-Oct-13 10:00N 70°41' E 023°37'0 0.0
2017-Oct-13 09:30N 70°41' E 023°37'0 0.0
2017-Oct-13 09:00N 70°41' E 023°37'0 0.0
2017-Oct-13 08:30N 70°41' E 023°37'0 0.0
2017-Oct-13 08:00N 70°41' E 023°37'0 0.0
2017-Oct-13 06:49N 70°41' E 023°37'0 0.0
2017-Oct-13 06:30N 70°41' E 023°37'0 0.0
2017-Oct-13 05:27N 70°41' E 023°37'0 0.0
2017-Oct-13 04:08N 70°41' E 023°37'0 0.0
2017-Oct-13 03:46N 70°41' E 023°37'0 0.0
2017-Oct-13 03:19N 70°41' E 023°37'0 0.0
2017-Oct-12 23:14N 70°41' E 023°37'0 1.1
2017-Oct-12 22:59N 70°41' E 023°36'0 0.4
2017-Oct-12 22:30N 70°41' E 023°36'0 0.1
2017-Oct-12 21:57N 70°41' E 023°36'0 0.6
2017-Oct-12 21:26N 70°41' E 023°36'1 1.8
2017-Oct-12 21:00N 70°41' E 023°34'1 1.6
2017-Oct-12 20:29N 70°40' E 023°35'2 4.8
2017-Oct-12 20:00N 70°38' E 023°36'1 1.9
2017-Oct-12 19:30N 70°38' E 023°39'0 0.0
2017-Oct-12 18:59N 70°38' E 023°39'0 0.0
2017-Oct-12 18:30N 70°38' E 023°39'0 0.0
2017-Oct-12 18:00N 70°38' E 023°39'0 0.0
2017-Oct-12 17:30N 70°38' E 023°39'0 0.0
2017-Oct-12 17:00N 70°38' E 023°39'0 0.0
2017-Oct-12 16:24N 70°38' E 023°39'0 0.0
2017-Oct-12 16:00N 70°38' E 023°39'0 0.0
2017-Oct-12 15:30N 70°38' E 023°39'0 0.0
2017-Oct-12 15:00N 70°38' E 023°39'0 0.0
2017-Oct-12 14:30N 70°38' E 023°39'0 0.0
2017-Oct-12 14:00N 70°38' E 023°39'0 0.0
2017-Oct-12 13:30N 70°38' E 023°39'0 0.0
2017-Oct-12 13:00N 70°38' E 023°39'0 0.0
2017-Oct-12 12:30N 70°38' E 023°39'0 0.0
2017-Oct-12 12:00N 70°38' E 023°39'0 0.0
2017-Oct-12 11:30N 70°38' E 023°39'0 0.0
2017-Oct-12 11:00N 70°38' E 023°39'0 0.0
2017-Oct-12 10:30N 70°38' E 023°39'0 0.0
2017-Oct-12 10:00N 70°38' E 023°39'0 0.0
2017-Oct-12 09:30N 70°38' E 023°39'0 0.0
2017-Oct-12 09:00N 70°38' E 023°39'0 0.0
2017-Oct-12 08:30N 70°38' E 023°39'0 0.0
2017-Oct-12 08:00N 70°38' E 023°39'0 0.0
2017-Oct-12 07:30N 70°38' E 023°39'0 0.0
2017-Oct-12 07:00N 70°38' E 023°39'0 0.0
2017-Oct-12 06:30N 70°38' E 023°39'0 0.0
2017-Oct-12 06:00N 70°38' E 023°39'0 0.0
2017-Oct-12 05:30N 70°38' E 023°39'0 0.0
2017-Oct-12 05:00N 70°38' E 023°39'0 0.0
2017-Oct-12 04:30N 70°38' E 023°39'0 0.0
2017-Oct-12 04:00N 70°38' E 023°39'0 0.0
2017-Oct-12 03:30N 70°38' E 023°39'0 0.0
2017-Oct-12 03:00N 70°38' E 023°39'0 0.0
2017-Oct-12 02:30N 70°38' E 023°39'0 0.0
2017-Oct-12 02:00N 70°38' E 023°39'0 0.0
2017-Oct-12 01:30N 70°38' E 023°39'0 0.0
2017-Oct-12 01:00N 70°38' E 023°39'0 0.0
2017-Oct-12 00:30N 70°38' E 023°39'0 0.0
2017-Oct-12 00:00N 70°38' E 023°39'0 0.0
2017-Oct-11 23:30N 70°38' E 023°39'0 0.0
2017-Oct-11 23:00N 70°38' E 023°39'0 0.0
2017-Oct-11 22:30N 70°38' E 023°39'0 0.0
2017-Oct-11 22:00N 70°38' E 023°39'0 0.0
2017-Oct-11 21:30N 70°38' E 023°39'0 0.0
2017-Oct-11 21:00N 70°38' E 023°39'0 0.0
2017-Oct-11 20:30N 70°38' E 023°39'0 0.0
2017-Oct-11 20:00N 70°38' E 023°39'0 0.0
2017-Oct-11 19:30N 70°38' E 023°39'0 0.0
2017-Oct-11 19:00N 70°38' E 023°39'0 0.0
2017-Oct-11 18:29N 70°38' E 023°39'0 0.0
2017-Oct-11 18:00N 70°38' E 023°39'0 0.0
2017-Oct-11 17:30N 70°38' E 023°39'0 0.0
2017-Oct-11 16:59N 70°38' E 023°39'0 0.0
2017-Oct-11 00:00N 70°38' E 023°39'0 0.0
2017-Oct-10 23:30N 70°38' E 023°39'0 0.0
2017-Oct-10 23:00N 70°38' E 023°39'0 0.0
2017-Oct-10 22:30N 70°38' E 023°39'0 0.0
2017-Oct-10 22:00N 70°38' E 023°39'0 0.0
2017-Oct-10 21:30N 70°38' E 023°39'0 0.0
2017-Oct-10 21:00N 70°38' E 023°39'0 0.0
2017-Oct-10 20:30N 70°38' E 023°39'0 0.0
2017-Oct-10 19:59N 70°38' E 023°39'0 0.0
2017-Oct-10 19:30N 70°38' E 023°39'0 0.0
2017-Oct-10 19:00N 70°38' E 023°39'0 0.0
2017-Oct-10 18:30N 70°38' E 023°39'0 0.0
2017-Oct-10 18:00N 70°38' E 023°39'0 0.0
2017-Oct-10 17:30N 70°38' E 023°39'0 0.0
2017-Oct-10 17:00N 70°38' E 023°39'0 0.0
2017-Oct-10 16:30N 70°38' E 023°39'0 0.0
2017-Oct-10 16:00N 70°38' E 023°39'0 0.0
2017-Oct-10 15:29N 70°38' E 023°39'0 0.0
2017-Oct-10 15:00N 70°38' E 023°39'0 0.0
2017-Oct-10 14:00N 70°38' E 023°39'0 0.0
2017-Oct-10 13:30N 70°38' E 023°39'0 0.0
2017-Oct-10 13:00N 70°38' E 023°39'0 0.0
2017-Oct-10 12:30N 70°38' E 023°39'0 0.0
2017-Oct-10 12:00N 70°38' E 023°39'0 0.0
2017-Oct-10 11:30N 70°38' E 023°39'0 0.0
2017-Oct-10 11:00N 70°38' E 023°39'0 0.0
2017-Oct-10 10:29N 70°38' E 023°39'0 0.0
2017-Oct-10 10:00N 70°38' E 023°39'0 0.0
2017-Oct-10 09:30N 70°38' E 023°39'0 0.0
2017-Oct-10 08:59N 70°38' E 023°39'0 0.0
2017-Oct-10 08:30N 70°38' E 023°39'0 0.0
2017-Oct-10 08:00N 70°38' E 023°39'0 0.0
2017-Oct-10 07:30N 70°38' E 023°39'0 0.0
2017-Oct-10 07:00N 70°38' E 023°39'0 0.0
2017-Oct-10 06:30N 70°38' E 023°39'0 0.1
2017-Oct-10 06:00N 70°38' E 023°39'0 0.0
2017-Oct-10 05:30N 70°38' E 023°39'0 0.0
2017-Oct-10 05:00N 70°38' E 023°39'0 0.0
2017-Oct-10 04:30N 70°38' E 023°39'0 0.0
2017-Oct-10 04:00N 70°38' E 023°39'0 0.0
2017-Oct-10 03:29N 70°38' E 023°39'0 0.0
2017-Oct-10 03:00N 70°38' E 023°39'0 0.0
2017-Oct-10 02:30N 70°38' E 023°39'0 0.0
2017-Oct-10 02:00N 70°38' E 023°39'0 0.0
2017-Oct-10 01:30N 70°38' E 023°39'0 0.0
2017-Oct-10 01:00N 70°38' E 023°39'0 0.0
2017-Oct-10 00:30N 70°38' E 023°39'0 0.0
2017-Oct-10 00:00N 70°38' E 023°39'0 0.0
2017-Oct-09 23:30N 70°38' E 023°39'0 0.0
2017-Oct-09 23:00N 70°38' E 023°39'0 0.0
2017-Oct-09 22:30N 70°38' E 023°39'0 0.0
2017-Oct-09 21:59N 70°38' E 023°39'0 0.0
2017-Oct-09 21:30N 70°38' E 023°39'0 0.0
2017-Oct-09 21:00N 70°38' E 023°39'0 0.0
2017-Oct-09 20:30N 70°38' E 023°39'0 0.0
2017-Oct-09 20:00N 70°38' E 023°39'0 0.0
2017-Oct-09 19:30N 70°38' E 023°39'0 0.0
2017-Oct-09 19:00N 70°38' E 023°39'0 0.0
2017-Oct-09 18:29N 70°38' E 023°39'0 0.0
2017-Oct-09 18:00N 70°38' E 023°39'0 0.0
2017-Oct-09 17:30N 70°38' E 023°39'0 0.0
2017-Oct-09 17:00N 70°38' E 023°39'0 0.0
2017-Oct-09 16:30N 70°38' E 023°39'0 0.0
2017-Oct-09 16:00N 70°38' E 023°39'0 0.0
2017-Oct-09 15:30N 70°38' E 023°39'0 0.0
2017-Oct-09 15:00N 70°38' E 023°39'0 0.0
2017-Oct-09 14:30N 70°38' E 023°39'0 0.0
2017-Oct-09 14:00N 70°38' E 023°39'0 0.0
2017-Oct-09 13:30N 70°38' E 023°39'0 0.0
2017-Oct-09 13:00N 70°38' E 023°39'0 0.0
2017-Oct-09 12:30N 70°38' E 023°39'0 0.0
2017-Oct-09 12:00N 70°38' E 023°39'0 0.0
2017-Oct-09 11:30N 70°38' E 023°39'0 0.0
2017-Oct-09 11:00N 70°38' E 023°39'0 0.0
2017-Oct-09 10:30N 70°38' E 023°39'0 0.0
2017-Oct-09 10:00N 70°38' E 023°39'0 0.0
2017-Oct-09 09:30N 70°38' E 023°39'0 0.0
2017-Oct-09 09:00N 70°38' E 023°39'0 0.0
2017-Oct-09 08:30N 70°38' E 023°39'0 0.1
2017-Oct-09 07:59N 70°38' E 023°39'0 0.0
2017-Oct-09 07:30N 70°38' E 023°39'0 0.0
2017-Oct-09 07:00N 70°38' E 023°39'0 0.0
2017-Oct-09 06:29N 70°38' E 023°39'0 0.0
2017-Oct-09 06:00N 70°38' E 023°39'0 0.0
2017-Oct-09 05:30N 70°38' E 023°39'0 0.0
2017-Oct-09 05:00N 70°38' E 023°39'0 0.0
2017-Oct-09 04:30N 70°38' E 023°39'0 0.0
2017-Oct-09 04:00N 70°38' E 023°39'0 0.0
2017-Oct-09 03:30N 70°38' E 023°39'0 0.0
2017-Oct-09 03:00N 70°38' E 023°39'0 0.0
2017-Oct-09 02:30N 70°38' E 023°39'0 0.0
2017-Oct-09 02:00N 70°38' E 023°39'0 0.0
2017-Oct-09 01:30N 70°38' E 023°39'0 0.0
2017-Oct-09 01:00N 70°38' E 023°39'0 0.0
2017-Oct-09 00:30N 70°38' E 023°39'0 0.0
2017-Oct-09 00:00N 70°38' E 023°39'0 0.0
2017-Oct-08 23:30N 70°38' E 023°39'0 0.0
2017-Oct-08 23:00N 70°38' E 023°39'0 0.0
2017-Oct-08 22:30N 70°38' E 023°39'0 0.0
2017-Oct-08 22:00N 70°38' E 023°39'0 0.0
2017-Oct-08 21:30N 70°38' E 023°39'0 0.0
2017-Oct-08 21:00N 70°38' E 023°39'0 0.0
2017-Oct-08 20:30N 70°38' E 023°39'0 0.0
2017-Oct-08 19:59N 70°38' E 023°39'0 0.0
2017-Oct-08 19:30N 70°38' E 023°39'0 0.0
2017-Oct-08 19:00N 70°38' E 023°39'0 0.0
2017-Oct-08 18:30N 70°38' E 023°39'0 0.0
2017-Oct-08 18:00N 70°38' E 023°39'0 0.0
2017-Oct-08 17:30N 70°38' E 023°39'0 0.0
2017-Oct-08 17:00N 70°38' E 023°39'0 0.4
2017-Oct-08 16:30N 70°38' E 023°39'3 6.2
2017-Oct-08 16:00N 70°41' E 023°36'0 0.6
2017-Oct-08 15:30N 70°41' E 023°36'  
Track history (hours):
 
Tides and Currents Weather Stations Pressure Air Temp Water Temp Dewpoint Dewpoint Depression Visibility Wind Speed Wind Dir Waves Ship Positions

Gondan 465

Last reported at 2017-Oct-18 15:00 UTC. Time now 2017-Oct-18 15:15 UTC.
Position N 70°38' E 023°39'.

Length 40 m.

Type: Towing. MMSI: 224885000.

Date/timePositionNaut miles runAvg speedWind from/ knotsBaromVisibWave heightAir tempDewpointWater temp
2017-Oct-18 15:00N 70°38' E 023°39'0 0.0
2017-Oct-18 14:00N 70°38' E 023°39'1 2.0
2017-Oct-18 13:30N 70°38' E 023°36'3 5.9
2017-Oct-18 13:00N 70°41' E 023°36'1 2.0
2017-Oct-18 12:30N 70°40' E 023°36'2 4.7
2017-Oct-18 12:00N 70°38' E 023°39'0 0.0
2017-Oct-18 11:30N 70°38' E 023°39'0 0.0
2017-Oct-18 11:00N 70°38' E 023°39'0 0.0
2017-Oct-18 10:30N 70°38' E 023°39'0 0.0
2017-Oct-18 10:00N 70°38' E 023°39'0 0.0
2017-Oct-18 09:30N 70°38' E 023°39'0 0.0
2017-Oct-18 09:00N 70°38' E 023°39'0 0.0
2017-Oct-18 08:30N 70°38' E 023°39'0 0.0
2017-Oct-18 08:00N 70°38' E 023°39'0 0.0
2017-Oct-18 07:30N 70°38' E 023°39'0 0.0
2017-Oct-18 07:00N 70°38' E 023°39'0 0.0
2017-Oct-18 06:30N 70°38' E 023°39'0 0.0
2017-Oct-18 06:00N 70°38' E 023°39'0 0.0
2017-Oct-18 05:30N 70°38' E 023°39'0 0.0
2017-Oct-18 05:00N 70°38' E 023°39'0 0.0
2017-Oct-18 04:30N 70°38' E 023°39'0 0.0
2017-Oct-18 04:00N 70°38' E 023°39'0 0.0
2017-Oct-18 03:30N 70°38' E 023°39'0 0.0
2017-Oct-18 03:00N 70°38' E 023°39'0 0.0
2017-Oct-18 02:30N 70°38' E 023°39'0 0.0
2017-Oct-18 02:00N 70°38' E 023°39'0 0.0
2017-Oct-18 01:30N 70°38' E 023°39'0 0.0
2017-Oct-18 01:00N 70°38' E 023°39'0 0.0
2017-Oct-18 00:30N 70°38' E 023°39'0 0.0
2017-Oct-18 00:00N 70°38' E 023°39'0 0.0
2017-Oct-17 23:30N 70°38' E 023°39'0 0.0
2017-Oct-17 23:00N 70°38' E 023°39'0 0.0
2017-Oct-17 22:30N 70°38' E 023°39'0 0.0
2017-Oct-17 22:00N 70°38' E 023°39'0 0.0
2017-Oct-17 21:30N 70°38' E 023°39'0 0.0
2017-Oct-17 21:00N 70°38' E 023°39'0 0.0
2017-Oct-17 20:30N 70°38' E 023°39'0 0.0
2017-Oct-17 20:00N 70°38' E 023°39'0 0.0
2017-Oct-17 19:30N 70°38' E 023°39'0 0.0
2017-Oct-17 19:00N 70°38' E 023°39'0 0.0
2017-Oct-17 18:30N 70°38' E 023°39'0 0.0
2017-Oct-17 18:00N 70°38' E 023°39'0 0.0
2017-Oct-17 17:30N 70°38' E 023°39'0 0.0
2017-Oct-17 17:00N 70°38' E 023°39'0 0.0
2017-Oct-17 16:30N 70°38' E 023°39'0 0.0
2017-Oct-17 16:00N 70°38' E 023°39'0 0.0
2017-Oct-17 15:29N 70°38' E 023°39'0 0.0
2017-Oct-17 14:59N 70°38' E 023°39'0 0.0
2017-Oct-17 14:30N 70°38' E 023°39'0 0.0
2017-Oct-17 14:00N 70°38' E 023°39'0 0.0
2017-Oct-17 13:30N 70°38' E 023°39'0 0.0
2017-Oct-17 13:00N 70°38' E 023°39'0 0.0
2017-Oct-17 12:30N 70°38' E 023°39'0 0.0
2017-Oct-17 12:00N 70°38' E 023°39'0 0.0
2017-Oct-17 11:30N 70°38' E 023°39'0 0.0
2017-Oct-17 11:00N 70°38' E 023°39'1 2.0
2017-Oct-17 10:30N 70°37' E 023°38'4 7.7
2017-Oct-17 10:00N 70°41' E 023°36'0 0.0
2017-Oct-17 09:30N 70°41' E 023°36'0 0.8
2017-Oct-17 09:00N 70°41' E 023°36'1 2.5
2017-Oct-17 08:30N 70°42' E 023°34'1 2.2
2017-Oct-17 08:00N 70°41' E 023°37'0 0.0
2017-Oct-17 07:30N 70°41' E 023°37'0 0.0
2017-Oct-17 07:00N 70°41' E 023°37'0 0.0
2017-Oct-17 06:30N 70°41' E 023°37'0 0.0
2017-Oct-17 06:00N 70°41' E 023°37'0 0.0
2017-Oct-17 05:30N 70°41' E 023°37'0 0.0
2017-Oct-17 05:00N 70°41' E 023°37'0 0.0
2017-Oct-17 04:30N 70°41' E 023°37'0 0.0
2017-Oct-17 04:00N 70°41' E 023°37'0 0.0
2017-Oct-17 03:30N 70°41' E 023°37'0 0.0
2017-Oct-17 03:00N 70°41' E 023°37'1 2.0
2017-Oct-17 02:30N 70°41' E 023°35'1 1.2
2017-Oct-17 02:00N 70°41' E 023°36'0 0.8
2017-Oct-17 01:30N 70°41' E 023°37'0 0.0
2017-Oct-17 01:00N 70°41' E 023°37'0 0.0
2017-Oct-17 00:30N 70°41' E 023°37'0 0.0
2017-Oct-17 00:00N 70°41' E 023°37'0 0.0
2017-Oct-16 23:30N 70°41' E 023°37'0 0.0
2017-Oct-16 23:00N 70°41' E 023°37'0 0.0
2017-Oct-16 22:30N 70°41' E 023°37'0 0.0
2017-Oct-16 22:00N 70°41' E 023°37'0 0.0
2017-Oct-16 21:30N 70°41' E 023°37'0 0.0
2017-Oct-16 21:00N 70°41' E 023°37'0 0.0
2017-Oct-16 20:30N 70°41' E 023°37'0 0.0
2017-Oct-16 20:00N 70°41' E 023°37'0 0.0
2017-Oct-16 19:30N 70°41' E 023°37'0 0.0
2017-Oct-16 19:00N 70°41' E 023°37'0 0.0
2017-Oct-16 18:30N 70°41' E 023°37'0 0.0
2017-Oct-16 18:00N 70°41' E 023°37'0 0.0
2017-Oct-16 17:30N 70°41' E 023°37'0 0.0
2017-Oct-16 17:00N 70°41' E 023°37'0 0.0
2017-Oct-16 16:30N 70°41' E 023°37'0 0.0
2017-Oct-16 16:00N 70°41' E 023°37'0 0.0
2017-Oct-16 15:30N 70°41' E 023°37'0 0.0
2017-Oct-16 15:00N 70°41' E 023°37'0 0.0
2017-Oct-16 14:00N 70°41' E 023°37'0 0.0
2017-Oct-16 13:30N 70°41' E 023°37'0 0.0
2017-Oct-16 13:00N 70°41' E 023°37'0 0.0
2017-Oct-16 12:30N 70°41' E 023°37'0 0.0
2017-Oct-16 12:00N 70°41' E 023°37'0 0.0
2017-Oct-16 11:30N 70°41' E 023°37'0 0.0
2017-Oct-16 11:00N 70°41' E 023°37'0 0.0
2017-Oct-16 10:30N 70°41' E 023°37'0 0.0
2017-Oct-16 10:00N 70°41' E 023°37'0 0.0
2017-Oct-16 09:30N 70°41' E 023°37'0 0.0
2017-Oct-16 09:00N 70°41' E 023°37'0 0.9
2017-Oct-16 08:30N 70°41' E 023°36'0 0.3
2017-Oct-16 08:00N 70°41' E 023°36'1 1.8
2017-Oct-16 07:30N 70°41' E 023°34'3 5.9
2017-Oct-16 07:00N 70°39' E 023°36'1 2.6
2017-Oct-16 06:30N 70°38' E 023°39'0 0.0
2017-Oct-16 06:00N 70°38' E 023°39'0 0.0
2017-Oct-16 05:30N 70°38' E 023°39'0 0.0
2017-Oct-16 05:00N 70°38' E 023°39'0 0.0
2017-Oct-16 04:30N 70°38' E 023°39'0 0.0
2017-Oct-16 04:00N 70°38' E 023°39'3 5.5
2017-Oct-16 03:31N 70°40' E 023°35'1 1.8
2017-Oct-16 03:01N 70°41' E 023°36'1 2.5
2017-Oct-16 02:30N 70°40' E 023°36'2 4.1
2017-Oct-16 02:00N 70°38' E 023°39'0 0.0
2017-Oct-16 01:30N 70°38' E 023°39'0 0.0
2017-Oct-16 01:00N 70°38' E 023°39'0 0.0
2017-Oct-16 00:30N 70°38' E 023°39'0 0.0
2017-Oct-15 23:59N 70°38' E 023°39'0 0.0
2017-Oct-15 23:30N 70°38' E 023°39'0 0.0
2017-Oct-15 22:59N 70°38' E 023°39'0 0.0
2017-Oct-15 22:30N 70°38' E 023°39'0 0.0
2017-Oct-15 22:00N 70°38' E 023°39'0 0.0
2017-Oct-15 21:30N 70°38' E 023°39'0 0.0
2017-Oct-15 21:00N 70°38' E 023°39'0 0.0
2017-Oct-15 20:30N 70°38' E 023°39'0 0.0
2017-Oct-15 20:00N 70°38' E 023°39'0 0.0
2017-Oct-15 19:30N 70°38' E 023°39'0 0.0
2017-Oct-15 19:00N 70°38' E 023°39'0 0.0
2017-Oct-15 18:30N 70°38' E 023°39'0 0.0
2017-Oct-15 18:00N 70°38' E 023°39'0 0.0
2017-Oct-15 17:30N 70°38' E 023°39'0 0.0
2017-Oct-15 17:00N 70°38' E 023°39'0 0.0
2017-Oct-15 16:30N 70°38' E 023°39'0 0.0
2017-Oct-15 16:00N 70°38' E 023°39'0 0.0
2017-Oct-15 15:30N 70°38' E 023°39'0 0.0
2017-Oct-15 15:00N 70°38' E 023°39'0 0.0
2017-Oct-15 14:00N 70°38' E 023°39'0 0.0
2017-Oct-15 13:30N 70°38' E 023°39'0 0.0
2017-Oct-15 13:00N 70°38' E 023°39'0 0.0
2017-Oct-15 12:30N 70°38' E 023°39'0 0.0
2017-Oct-15 12:00N 70°38' E 023°39'0 0.0
2017-Oct-15 11:30N 70°38' E 023°39'0 0.0
2017-Oct-15 11:00N 70°38' E 023°39'0 0.0
2017-Oct-15 10:30N 70°38' E 023°39'0 0.0
2017-Oct-15 10:00N 70°38' E 023°39'0 0.0
2017-Oct-15 09:30N 70°38' E 023°39'0 0.0
2017-Oct-15 09:00N 70°38' E 023°39'0 0.0
2017-Oct-15 08:30N 70°38' E 023°39'0 0.0
2017-Oct-15 08:00N 70°38' E 023°39'0 0.0
2017-Oct-15 07:29N 70°38' E 023°39'0 0.0
2017-Oct-15 07:00N 70°38' E 023°39'0 0.0
2017-Oct-15 06:30N 70°38' E 023°39'0 0.0
2017-Oct-15 06:00N 70°38' E 023°39'0 0.0
2017-Oct-15 05:30N 70°38' E 023°39'0 0.0
2017-Oct-15 05:00N 70°38' E 023°39'0 0.0
2017-Oct-15 04:30N 70°38' E 023°39'0 0.0
2017-Oct-15 04:00N 70°38' E 023°39'0 0.0
2017-Oct-15 03:30N 70°38' E 023°39'0 0.0
2017-Oct-15 03:00N 70°38' E 023°39'0 0.0
2017-Oct-15 02:30N 70°38' E 023°39'0 0.0
2017-Oct-15 02:00N 70°38' E 023°39'0 0.0
2017-Oct-15 01:30N 70°38' E 023°39'0 0.0
2017-Oct-15 01:00N 70°38' E 023°39'0 0.0
2017-Oct-15 00:30N 70°38' E 023°39'0 0.0
2017-Oct-15 00:00N 70°38' E 023°39'0 0.0
2017-Oct-14 23:29N 70°38' E 023°39'0 0.0
2017-Oct-14 23:00N 70°38' E 023°39'0 0.0
2017-Oct-14 22:29N 70°38' E 023°39'0 0.0
2017-Oct-14 22:00N 70°38' E 023°39'0 0.0
2017-Oct-14 21:30N 70°38' E 023°39'0 0.0
2017-Oct-14 21:00N 70°38' E 023°39'0 0.0
2017-Oct-14 20:30N 70°38' E 023°39'0 0.0
2017-Oct-14 20:00N 70°38' E 023°39'0 0.0
2017-Oct-14 19:30N 70°38' E 023°39'0 0.0
2017-Oct-14 19:00N 70°38' E 023°39'0 0.0
2017-Oct-14 18:30N 70°38' E 023°39'0 0.0
2017-Oct-14 18:00N 70°38' E 023°39'0 0.0
2017-Oct-14 17:30N 70°38' E 023°39'0 0.0
2017-Oct-14 17:00N 70°38' E 023°39'0 0.0
2017-Oct-14 16:30N 70°38' E 023°39'0 0.0
2017-Oct-14 16:00N 70°38' E 023°39'0 0.0
2017-Oct-14 15:30N 70°38' E 023°39'0 0.0
2017-Oct-14 15:00N 70°38' E 023°39'0 0.0
2017-Oct-14 14:30N 70°38' E 023°39'0 0.0
2017-Oct-14 14:00N 70°38' E 023°39'0 0.0
2017-Oct-14 13:30N 70°38' E 023°39'0 0.0
2017-Oct-14 13:00N 70°38' E 023°39'0 0.0
2017-Oct-14 12:30N 70°38' E 023°39'0 0.0
2017-Oct-14 12:00N 70°38' E 023°39'0 0.0
2017-Oct-14 11:30N 70°38' E 023°39'0 0.0
2017-Oct-14 11:00N 70°38' E 023°39'0 0.0
2017-Oct-14 10:30N 70°38' E 023°39'0 0.0
2017-Oct-14 10:00N 70°38' E 023°39'0 0.0
2017-Oct-14 09:30N 70°38' E 023°39'0 0.0
2017-Oct-14 09:00N 70°38' E 023°39'0 0.0
2017-Oct-14 08:30N 70°38' E 023°39'0 0.0
2017-Oct-14 08:00N 70°38' E 023°39'0 0.0
2017-Oct-14 07:30N 70°38' E 023°39'0 0.0
2017-Oct-14 07:00N 70°38' E 023°39'0 0.0
2017-Oct-14 06:30N 70°38' E 023°39'0 0.0
2017-Oct-14 06:00N 70°38' E 023°39'0 0.0
2017-Oct-14 05:30N 70°38' E 023°39'0 0.0
2017-Oct-14 05:00N 70°38' E 023°39'0 0.0
2017-Oct-14 04:30N 70°38' E 023°39'0 0.0
2017-Oct-14 04:00N 70°38' E 023°39'0 0.0
2017-Oct-14 03:30N 70°38' E 023°39'0 0.0
2017-Oct-14 03:00N 70°38' E 023°39'0 0.0
2017-Oct-14 02:30N 70°38' E 023°39'0 0.0
2017-Oct-14 02:00N 70°38' E 023°39'0 0.0
2017-Oct-14 01:30N 70°38' E 023°39'0 0.0
2017-Oct-14 01:00N 70°38' E 023°39'0 0.0
2017-Oct-14 00:30N 70°38' E 023°39'0 0.0
2017-Oct-14 00:00N 70°38' E 023°39'0 0.7
2017-Oct-13 23:30N 70°38' E 023°39'3 6.9
2017-Oct-13 23:00N 70°41' E 023°36'0 0.1
2017-Oct-13 22:30N 70°41' E 023°36'0 0.2
2017-Oct-13 22:00N 70°41' E 023°36'1 1.8
2017-Oct-13 21:30N 70°41' E 023°34'3 5.7
2017-Oct-13 21:00N 70°41' E 023°25'3 5.1
2017-Oct-13 20:30N 70°39' E 023°31'3 5.8
2017-Oct-13 20:00N 70°38' E 023°39'0 0.0
2017-Oct-13 19:30N 70°38' E 023°39'0 0.0
2017-Oct-13 19:00N 70°38' E 023°39'2 4.1
2017-Oct-13 18:31N 70°40' E 023°36'1 2.7
2017-Oct-13 18:00N 70°41' E 023°36'0 0.8
2017-Oct-13 17:30N 70°41' E 023°37'0 0.0
2017-Oct-13 17:00N 70°41' E 023°37'0 0.0
2017-Oct-13 16:30N 70°41' E 023°37'0 0.0
2017-Oct-13 16:00N 70°41' E 023°37'0 0.0
2017-Oct-13 15:30N 70°41' E 023°37'0 0.0
2017-Oct-13 15:00N 70°41' E 023°37'0 0.0
2017-Oct-13 14:30N 70°41' E 023°37'0 0.0
2017-Oct-13 14:00N 70°41' E 023°37'0 0.0
2017-Oct-13 13:30N 70°41' E 023°37'0 0.0
2017-Oct-13 13:00N 70°41' E 023°37'0 0.0
2017-Oct-13 12:30N 70°41' E 023°37'0 0.0
2017-Oct-13 12:00N 70°41' E 023°37'0 0.0
2017-Oct-13 11:30N 70°41' E 023°37'0 0.0
2017-Oct-13 11:00N 70°41' E 023°37'0 0.0
2017-Oct-13 10:30N 70°41' E 023°37'0 0.0
2017-Oct-13 10:00N 70°41' E 023°37'0 0.0
2017-Oct-13 09:30N 70°41' E 023°37'0 0.0
2017-Oct-13 09:00N 70°41' E 023°37'0 0.0
2017-Oct-13 08:30N 70°41' E 023°37'0 0.0
2017-Oct-13 08:00N 70°41' E 023°37'0 0.0
2017-Oct-13 06:49N 70°41' E 023°37'0 0.0
2017-Oct-13 06:30N 70°41' E 023°37'0 0.0
2017-Oct-13 05:27N 70°41' E 023°37'0 0.0
2017-Oct-13 04:08N 70°41' E 023°37'0 0.0
2017-Oct-13 03:46N 70°41' E 023°37'0 0.0
2017-Oct-13 03:19N 70°41' E 023°37'0 0.0
2017-Oct-12 23:14N 70°41' E 023°37'0 1.1
2017-Oct-12 22:59N 70°41' E 023°36'0 0.4
2017-Oct-12 22:30N 70°41' E 023°36'0 0.1
2017-Oct-12 21:57N 70°41' E 023°36'0 0.6
2017-Oct-12 21:26N 70°41' E 023°36'1 1.8
2017-Oct-12 21:00N 70°41' E 023°34'1 1.6
2017-Oct-12 20:29N 70°40' E 023°35'2 4.8
2017-Oct-12 20:00N 70°38' E 023°36'1 1.9
2017-Oct-12 19:30N 70°38' E 023°39'0 0.0
2017-Oct-12 18:59N 70°38' E 023°39'0 0.0
2017-Oct-12 18:30N 70°38' E 023°39'0 0.0
2017-Oct-12 18:00N 70°38' E 023°39'0 0.0
2017-Oct-12 17:30N 70°38' E 023°39'0 0.0
2017-Oct-12 17:00N 70°38' E 023°39'0 0.0
2017-Oct-12 16:24N 70°38' E 023°39'0 0.0
2017-Oct-12 16:00N 70°38' E 023°39'0 0.0
2017-Oct-12 15:30N 70°38' E 023°39'0 0.0
2017-Oct-12 15:00N 70°38' E 023°39'0 0.0
2017-Oct-12 14:30N 70°38' E 023°39'0 0.0
2017-Oct-12 14:00N 70°38' E 023°39'0 0.0
2017-Oct-12 13:30N 70°38' E 023°39'0 0.0
2017-Oct-12 13:00N 70°38' E 023°39'0 0.0
2017-Oct-12 12:30N 70°38' E 023°39'0 0.0
2017-Oct-12 12:00N 70°38' E 023°39'0 0.0
2017-Oct-12 11:30N 70°38' E 023°39'0 0.0
2017-Oct-12 11:00N 70°38' E 023°39'0 0.0
2017-Oct-12 10:30N 70°38' E 023°39'0 0.0
2017-Oct-12 10:00N 70°38' E 023°39'0 0.0
2017-Oct-12 09:30N 70°38' E 023°39'0 0.0
2017-Oct-12 09:00N 70°38' E 023°39'0 0.0
2017-Oct-12 08:30N 70°38' E 023°39'0 0.0
2017-Oct-12 08:00N 70°38' E 023°39'0 0.0
2017-Oct-12 07:30N 70°38' E 023°39'0 0.0
2017-Oct-12 07:00N 70°38' E 023°39'0 0.0
2017-Oct-12 06:30N 70°38' E 023°39'0 0.0
2017-Oct-12 06:00N 70°38' E 023°39'0 0.0
2017-Oct-12 05:30N 70°38' E 023°39'0 0.0
2017-Oct-12 05:00N 70°38' E 023°39'0 0.0
2017-Oct-12 04:30N 70°38' E 023°39'0 0.0
2017-Oct-12 04:00N 70°38' E 023°39'0 0.0
2017-Oct-12 03:30N 70°38' E 023°39'0 0.0
2017-Oct-12 03:00N 70°38' E 023°39'0 0.0
2017-Oct-12 02:30N 70°38' E 023°39'0 0.0
2017-Oct-12 02:00N 70°38' E 023°39'0 0.0
2017-Oct-12 01:30N 70°38' E 023°39'0 0.0
2017-Oct-12 01:00N 70°38' E 023°39'0 0.0
2017-Oct-12 00:30N 70°38' E 023°39'0 0.0
2017-Oct-12 00:00N 70°38' E 023°39'0 0.0
2017-Oct-11 23:30N 70°38' E 023°39'0 0.0
2017-Oct-11 23:00N 70°38' E 023°39'0 0.0
2017-Oct-11 22:30N 70°38' E 023°39'0 0.0
2017-Oct-11 22:00N 70°38' E 023°39'0 0.0
2017-Oct-11 21:30N 70°38' E 023°39'0 0.0
2017-Oct-11 21:00N 70°38' E 023°39'0 0.0
2017-Oct-11 20:30N 70°38' E 023°39'0 0.0
2017-Oct-11 20:00N 70°38' E 023°39'0 0.0
2017-Oct-11 19:30N 70°38' E 023°39'0 0.0
2017-Oct-11 19:00N 70°38' E 023°39'0 0.0
2017-Oct-11 18:29N 70°38' E 023°39'0 0.0
2017-Oct-11 18:00N 70°38' E 023°39'0 0.0
2017-Oct-11 17:30N 70°38' E 023°39'0 0.0
2017-Oct-11 16:59N 70°38' E 023°39'0 0.0
2017-Oct-11 00:00N 70°38' E 023°39'0 0.0
2017-Oct-10 23:30N 70°38' E 023°39'0 0.0
2017-Oct-10 23:00N 70°38' E 023°39'0 0.0
2017-Oct-10 22:30N 70°38' E 023°39'0 0.0
2017-Oct-10 22:00N 70°38' E 023°39'0 0.0
2017-Oct-10 21:30N 70°38' E 023°39'0 0.0
2017-Oct-10 21:00N 70°38' E 023°39'0 0.0
2017-Oct-10 20:30N 70°38' E 023°39'0 0.0
2017-Oct-10 19:59N 70°38' E 023°39'0 0.0
2017-Oct-10 19:30N 70°38' E 023°39'0 0.0
2017-Oct-10 19:00N 70°38' E 023°39'0 0.0
2017-Oct-10 18:30N 70°38' E 023°39'0 0.0
2017-Oct-10 18:00N 70°38' E 023°39'0 0.0
2017-Oct-10 17:30N 70°38' E 023°39'0 0.0
2017-Oct-10 17:00N 70°38' E 023°39'0 0.0
2017-Oct-10 16:30N 70°38' E 023°39'0 0.0
2017-Oct-10 16:00N 70°38' E 023°39'0 0.0
2017-Oct-10 15:29N 70°38' E 023°39'0 0.0
2017-Oct-10 15:00N 70°38' E 023°39'0 0.0
2017-Oct-10 14:00N 70°38' E 023°39'0 0.0
2017-Oct-10 13:30N 70°38' E 023°39'0 0.0
2017-Oct-10 13:00N 70°38' E 023°39'0 0.0
2017-Oct-10 12:30N 70°38' E 023°39'0 0.0
2017-Oct-10 12:00N 70°38' E 023°39'0 0.0
2017-Oct-10 11:30N 70°38' E 023°39'0 0.0
2017-Oct-10 11:00N 70°38' E 023°39'0 0.0
2017-Oct-10 10:29N 70°38' E 023°39'0 0.0
2017-Oct-10 10:00N 70°38' E 023°39'0 0.0
2017-Oct-10 09:30N 70°38' E 023°39'0 0.0
2017-Oct-10 08:59N 70°38' E 023°39'0 0.0
2017-Oct-10 08:30N 70°38' E 023°39'0 0.0
2017-Oct-10 08:00N 70°38' E 023°39'0 0.0
2017-Oct-10 07:30N 70°38' E 023°39'0 0.0
2017-Oct-10 07:00N 70°38' E 023°39'0 0.0
2017-Oct-10 06:30N 70°38' E 023°39'0 0.1
2017-Oct-10 06:00N 70°38' E 023°39'0 0.0
2017-Oct-10 05:30N 70°38' E 023°39'0 0.0
2017-Oct-10 05:00N 70°38' E 023°39'0 0.0
2017-Oct-10 04:30N 70°38' E 023°39'0 0.0
2017-Oct-10 04:00N 70°38' E 023°39'0 0.0
2017-Oct-10 03:29N 70°38' E 023°39'0 0.0
2017-Oct-10 03:00N 70°38' E 023°39'0 0.0
2017-Oct-10 02:30N 70°38' E 023°39'0 0.0
2017-Oct-10 02:00N 70°38' E 023°39'0 0.0
2017-Oct-10 01:30N 70°38' E 023°39'0 0.0
2017-Oct-10 01:00N 70°38' E 023°39'0 0.0
2017-Oct-10 00:30N 70°38' E 023°39'0 0.0
2017-Oct-10 00:00N 70°38' E 023°39'0 0.0
2017-Oct-09 23:30N 70°38' E 023°39'0 0.0
2017-Oct-09 23:00N 70°38' E 023°39'0 0.0
2017-Oct-09 22:30N 70°38' E 023°39'0 0.0
2017-Oct-09 21:59N 70°38' E 023°39'0 0.0
2017-Oct-09 21:30N 70°38' E 023°39'0 0.0
2017-Oct-09 21:00N 70°38' E 023°39'0 0.0
2017-Oct-09 20:30N 70°38' E 023°39'0 0.0
2017-Oct-09 20:00N 70°38' E 023°39'0 0.0
2017-Oct-09 19:30N 70°38' E 023°39'0 0.0
2017-Oct-09 19:00N 70°38' E 023°39'0 0.0
2017-Oct-09 18:29N 70°38' E 023°39'0 0.0
2017-Oct-09 18:00N 70°38' E 023°39'0 0.0
2017-Oct-09 17:30N 70°38' E 023°39'0 0.0
2017-Oct-09 17:00N 70°38' E 023°39'0 0.0
2017-Oct-09 16:30N 70°38' E 023°39'0 0.0
2017-Oct-09 16:00N 70°38' E 023°39'0 0.0
2017-Oct-09 15:30N 70°38' E 023°39'0 0.0
2017-Oct-09 15:00N 70°38' E 023°39'0 0.0
2017-Oct-09 14:30N 70°38' E 023°39'0 0.0
2017-Oct-09 14:00N 70°38' E 023°39'0 0.0
2017-Oct-09 13:30N 70°38' E 023°39'0 0.0
2017-Oct-09 13:00N 70°38' E 023°39'0 0.0
2017-Oct-09 12:30N 70°38' E 023°39'0 0.0
2017-Oct-09 12:00N 70°38' E 023°39'0 0.0
2017-Oct-09 11:30N 70°38' E 023°39'0 0.0
2017-Oct-09 11:00N 70°38' E 023°39'0 0.0
2017-Oct-09 10:30N 70°38' E 023°39'0 0.0
2017-Oct-09 10:00N 70°38' E 023°39'0 0.0
2017-Oct-09 09:30N 70°38' E 023°39'0 0.0
2017-Oct-09 09:00N 70°38' E 023°39'0 0.0
2017-Oct-09 08:30N 70°38' E 023°39'0 0.1
2017-Oct-09 07:59N 70°38' E 023°39'0 0.0
2017-Oct-09 07:30N 70°38' E 023°39'0 0.0
2017-Oct-09 07:00N 70°38' E 023°39'0 0.0
2017-Oct-09 06:29N 70°38' E 023°39'0 0.0
2017-Oct-09 06:00N 70°38' E 023°39'0 0.0
2017-Oct-09 05:30N 70°38' E 023°39'0 0.0
2017-Oct-09 05:00N 70°38' E 023°39'0 0.0
2017-Oct-09 04:30N 70°38' E 023°39'0 0.0
2017-Oct-09 04:00N 70°38' E 023°39'0 0.0
2017-Oct-09 03:30N 70°38' E 023°39'0 0.0
2017-Oct-09 03:00N 70°38' E 023°39'0 0.0
2017-Oct-09 02:30N 70°38' E 023°39'0 0.0
2017-Oct-09 02:00N 70°38' E 023°39'0 0.0
2017-Oct-09 01:30N 70°38' E 023°39'0 0.0
2017-Oct-09 01:00N 70°38' E 023°39'0 0.0
2017-Oct-09 00:30N 70°38' E 023°39'0 0.0
2017-Oct-09 00:00N 70°38' E 023°39'0 0.0
2017-Oct-08 23:30N 70°38' E 023°39'0 0.0
2017-Oct-08 23:00N 70°38' E 023°39'0 0.0
2017-Oct-08 22:30N 70°38' E 023°39'0 0.0
2017-Oct-08 22:00N 70°38' E 023°39'0 0.0
2017-Oct-08 21:30N 70°38' E 023°39'0 0.0
2017-Oct-08 21:00N 70°38' E 023°39'0 0.0
2017-Oct-08 20:30N 70°38' E 023°39'0 0.0
2017-Oct-08 19:59N 70°38' E 023°39'0 0.0
2017-Oct-08 19:30N 70°38' E 023°39'0 0.0
2017-Oct-08 19:00N 70°38' E 023°39'0 0.0
2017-Oct-08 18:30N 70°38' E 023°39'0 0.0
2017-Oct-08 18:00N 70°38' E 023°39'0 0.0
2017-Oct-08 17:30N 70°38' E 023°39'0 0.0
2017-Oct-08 17:00N 70°38' E 023°39'0 0.4
2017-Oct-08 16:30N 70°38' E 023°39'3 6.2
2017-Oct-08 16:00N 70°41' E 023°36'0 0.6
2017-Oct-08 15:30N 70°41' E 023°36'  

Dump ship's entire track history